aviador You're here:

KGUS Decoded Metar

PERU in IN, USA
Report Time2018-04-24 02:07:00
UTC Time2018-04-24 02:31:00
Flight Rules mvfr MVFR
Wind100° at 11 kt
W.Decomp.*RWY 05: 6.8 kt HW 8.7 kt RCW
W.Rank100° ranks 26
Current wind is above 100° avg. (6.3)
Visibility9999 m
Phenomena:N/A
Clouds:Broken 018 Hf
Overcast 037 Hf
Ceiling1,800 ft
Temp12°C (ISA -1)
Dew Point12°C (100% RH)
AAT8.7°C
QNH1019 hPa
Density Alt633 ft
Elevation810 ft
Report Wrong Elevation
Raw Report
KGUS 240207Z AUTO 10011KT 10SM BKN018 OVC037 12/12 A3008 RMK AO2
DZB0157E07 CIG 015 RWY23 SLP190=

Extra information for KGUS:More info

Metar Taf Metar & Taf Last 4 Metars F.Rules Stats Wind Profile Meteogram Temp Stats Airport Information Weather charts Add Link Nearby VenuesMetar ALERT Operation Metar Decoded Social comments

AIRNAV info for KGUS